createdAt,value
2023-06-08T00:00:33.010Z,12.23
2023-06-08T00:03:45.098Z,13.18
2023-06-08T00:06:53.805Z,13.13
2023-06-08T00:09:57.583Z,11.40
2023-06-08T00:13:00.145Z,12.55
2023-06-08T00:16:08.644Z,11.70
2023-06-08T00:19:13.406Z,12.88
2023-06-08T00:22:22.733Z,14.20
2023-06-08T00:25:30.505Z,15.95
2023-06-08T00:28:35.001Z,14.18
2023-06-08T00:31:40.206Z,16.17
2023-06-08T00:37:51.734Z,15.20
2023-06-08T00:40:56.498Z,15.07
2023-06-08T00:43:58.850Z,15.85
2023-06-08T00:47:01.375Z,16.15
2023-06-08T00:50:08.585Z,14.82
2023-06-08T00:53:11.113Z,14.95
2023-06-08T00:56:19.874Z,16.15
2023-06-08T00:59:25.215Z,16.70
2023-06-08T01:02:33.041Z,14.07
2023-06-08T01:05:44.554Z,14.32
2023-06-08T01:09:17.944Z,12.98
2023-06-08T01:12:25.559Z,11.27
2023-06-08T01:15:39.305Z,14.00
2023-06-08T01:18:46.056Z,13.23
2023-06-08T01:22:03.265Z,12.77
2023-06-08T01:25:09.856Z,12.80
2023-06-08T01:31:19.796Z,12.20
2023-06-08T01:34:24.349Z,12.27
2023-06-08T01:37:46.797Z,13.25
2023-06-08T01:40:58.375Z,12.82
2023-06-08T01:44:06.611Z,11.77
2023-06-08T01:47:19.497Z,12.55
2023-06-08T01:50:28.984Z,12.75
2023-06-08T01:53:31.622Z,11.93
2023-06-08T01:56:37.152Z,11.95
2023-06-08T01:59:42.466Z,13.25
2023-06-08T02:02:46.372Z,12.10
2023-06-08T02:05:49.195Z,11.80
2023-06-08T02:08:51.483Z,11.82
2023-06-08T02:12:15.853Z,12.73
2023-06-08T02:15:21.635Z,12.30
2023-06-08T02:18:28.561Z,13.18
2023-06-08T02:21:31.218Z,12.70
2023-06-08T02:24:33.515Z,13.07
2023-06-08T02:27:38.482Z,12.85
2023-06-08T02:30:42.910Z,12.85
2023-06-08T02:33:45.513Z,12.88
2023-06-08T02:36:53.013Z,12.18
2023-06-08T02:39:57.943Z,12.82
2023-06-08T02:43:07.215Z,14.30
2023-06-08T02:46:09.609Z,14.40
2023-06-08T02:49:12.283Z,14.43
2023-06-08T02:52:17.296Z,13.13
2023-06-08T02:55:19.646Z,14.13
2023-06-08T02:58:24.644Z,15.82
2023-06-08T03:01:38.883Z,14.18
2023-06-08T03:04:49.601Z,14.48
2023-06-08T03:07:54.186Z,13.77
2023-06-08T03:10:56.818Z,15.13
2023-06-08T03:13:59.277Z,13.73
2023-06-08T03:17:06.195Z,15.05
2023-06-08T03:20:12.804Z,15.55
2023-06-08T03:23:25.545Z,13.95
2023-06-08T03:26:29.651Z,14.13
2023-06-08T03:29:35.652Z,13.68
2023-06-08T03:32:49.974Z,15.18
2023-06-08T03:35:57.409Z,15.13
2023-06-08T03:39:12.409Z,13.45
2023-06-08T03:42:17.388Z,14.30
2023-06-08T03:45:29.437Z,13.65
2023-06-08T03:48:32.832Z,15.50
2023-06-08T03:51:42.853Z,14.48
2023-06-08T03:54:46.355Z,15.75
2023-06-08T03:57:51.982Z,15.75
2023-06-08T04:00:54.693Z,14.18
2023-06-08T04:04:00.181Z,14.35
2023-06-08T04:07:06.357Z,13.57
2023-06-08T04:10:13.978Z,14.30
2023-06-08T04:13:20.439Z,14.55
2023-06-08T04:16:23.481Z,15.40
2023-06-08T04:19:29.251Z,14.95
2023-06-08T04:22:34.500Z,14.15
2023-06-08T04:25:40.348Z,13.85
2023-06-08T04:28:43.297Z,14.27
2023-06-08T04:31:46.442Z,13.98
2023-06-08T04:34:49.319Z,14.05
2023-06-08T04:37:54.340Z,14.20
2023-06-08T04:41:02.374Z,13.82
2023-06-08T04:44:14.375Z,15.10
2023-06-08T04:47:16.939Z,13.88
2023-06-08T04:50:22.020Z,13.77
2023-06-08T04:53:27.178Z,14.35
2023-06-08T04:56:30.864Z,13.10
2023-06-08T04:59:33.956Z,13.60
2023-06-08T05:02:38.600Z,12.98
2023-06-08T05:05:41.078Z,13.27
2023-06-08T05:08:44.820Z,13.90
2023-06-08T05:11:48.519Z,13.88
2023-06-08T05:14:51.283Z,14.52
2023-06-08T05:17:53.914Z,13.77
2023-06-08T05:20:56.376Z,13.88
2023-06-08T05:23:58.754Z,12.32
2023-06-08T05:27:01.099Z,12.23
2023-06-08T05:30:06.363Z,12.40
2023-06-08T05:33:08.875Z,13.25
2023-06-08T05:36:13.394Z,11.93
2023-06-08T05:39:16.000Z,13.63
2023-06-08T05:42:18.369Z,12.57
2023-06-08T05:45:22.938Z,12.20
2023-06-08T05:48:25.625Z,12.38
2023-06-08T05:51:30.592Z,12.57
2023-06-08T05:54:32.934Z,12.55
2023-06-08T05:57:35.578Z,12.70
2023-06-08T06:00:41.104Z,14.35
2023-06-08T06:03:48.414Z,13.35
2023-06-08T06:06:51.060Z,14.18
2023-06-08T06:09:56.046Z,12.73
2023-06-08T06:13:00.446Z,14.13
2023-06-08T06:16:07.715Z,13.15
2023-06-08T06:19:10.188Z,13.88
2023-06-08T06:22:14.917Z,14.07
2023-06-08T06:25:20.072Z,13.57
2023-06-08T06:28:24.840Z,14.27
2023-06-08T06:31:32.276Z,14.23
2023-06-08T06:34:38.914Z,13.32
2023-06-08T06:37:41.219Z,14.25
2023-06-08T06:40:43.505Z,14.73
2023-06-08T06:43:46.040Z,14.25
2023-06-08T06:46:52.632Z,12.65
2023-06-08T06:49:57.558Z,13.40
2023-06-08T06:52:59.958Z,13.88
2023-06-08T06:56:02.409Z,13.98
2023-06-08T06:59:06.042Z,15.02
2023-06-08T07:02:08.379Z,15.50
2023-06-08T07:05:15.656Z,15.88
2023-06-08T07:08:18.524Z,14.57
2023-06-08T07:11:25.767Z,15.55
2023-06-08T07:14:28.173Z,13.70
2023-06-08T07:17:32.873Z,14.32
2023-06-08T07:20:35.288Z,14.90
2023-06-08T07:24:15.133Z,14.35
2023-06-08T07:27:00.686Z,13.25
2023-06-08T07:30:03.872Z,13.40
2023-06-08T07:33:07.477Z,13.57
2023-06-08T07:36:09.897Z,14.35
2023-06-08T07:39:14.751Z,13.15
2023-06-08T07:42:22.058Z,13.43
2023-06-08T07:45:24.625Z,12.95
2023-06-08T07:48:27.032Z,12.65
2023-06-08T07:51:32.218Z,12.93
2023-06-08T07:54:37.021Z,12.48
2023-06-08T07:57:42.019Z,13.30
2023-06-08T08:03:52.688Z,11.82
2023-06-08T08:06:58.582Z,13.90
2023-06-08T08:10:04.612Z,12.98
2023-06-08T08:13:08.438Z,13.40
2023-06-08T08:16:13.164Z,13.80
2023-06-08T08:19:17.244Z,13.20
2023-06-08T08:22:19.808Z,13.30
2023-06-08T08:25:22.803Z,14.77
2023-06-08T08:28:25.148Z,12.65
2023-06-08T08:31:27.479Z,13.55
2023-06-08T08:34:29.925Z,12.18
2023-06-08T08:37:35.203Z,13.00
2023-06-08T08:40:38.243Z,13.60
2023-06-08T08:43:55.799Z,12.52
2023-06-08T08:47:03.542Z,12.35
2023-06-08T08:50:10.967Z,13.15
2023-06-08T08:53:15.705Z,13.20
2023-06-08T08:56:26.411Z,14.35
2023-06-08T08:59:34.561Z,13.20
2023-06-08T09:02:39.657Z,13.80
2023-06-08T09:08:51.965Z,12.07
2023-06-08T09:12:01.806Z,12.63
2023-06-08T09:15:04.697Z,12.00
2023-06-08T09:18:18.604Z,12.45
2023-06-08T09:21:28.254Z,12.35
2023-06-08T09:24:33.128Z,12.43
2023-06-08T09:27:38.659Z,10.32
2023-06-08T09:30:49.961Z,11.65
2023-06-08T09:34:05.378Z,11.60
2023-06-08T09:37:09.230Z,10.35
2023-06-08T09:40:20.264Z,9.93
2023-06-08T09:43:35.096Z,10.43
2023-06-08T09:46:42.587Z,10.57
2023-06-08T09:49:47.577Z,9.73
2023-06-08T09:52:53.092Z,10.07
2023-06-08T09:55:56.160Z,9.38
2023-06-08T09:59:05.485Z,9.05
2023-06-08T10:02:25.955Z,7.85
2023-06-08T10:05:31.826Z,7.95
2023-06-08T10:08:38.319Z,8.57
2023-06-08T10:11:40.831Z,7.28
2023-06-08T10:14:48.538Z,7.53
2023-06-08T10:17:54.508Z,7.75
2023-06-08T10:20:58.350Z,7.38
2023-06-08T10:24:03.583Z,7.65
2023-06-08T10:27:18.922Z,7.55
2023-06-08T10:30:49.964Z,7.82
2023-06-08T10:33:55.367Z,7.40
2023-06-08T10:36:57.659Z,7.70
2023-06-08T10:40:01.199Z,8.68
2023-06-08T10:43:25.960Z,8.63
2023-06-08T10:46:48.306Z,7.63
2023-06-08T10:49:58.605Z,7.07
2023-06-08T10:53:01.048Z,8.10
2023-06-08T10:56:05.857Z,7.47
2023-06-08T10:59:10.528Z,6.72
2023-06-08T11:02:12.929Z,6.32
2023-06-08T11:05:17.088Z,5.60
2023-06-08T11:08:19.768Z,6.55
2023-06-08T11:11:24.273Z,6.70
2023-06-08T11:14:27.070Z,7.28
2023-06-08T11:17:40.516Z,7.32
2023-06-08T11:20:43.802Z,7.55
2023-06-08T11:23:46.528Z,7.35
2023-06-08T11:27:03.056Z,6.75
2023-06-08T11:30:17.953Z,6.05
2023-06-08T11:33:22.824Z,6.50
2023-06-08T11:36:26.693Z,6.55
2023-06-08T11:39:34.176Z,6.28
2023-06-08T11:42:40.790Z,4.07
2023-06-08T11:45:44.142Z,3.50
2023-06-08T11:48:47.779Z,5.30
2023-06-08T11:51:54.531Z,4.32
2023-06-08T11:55:01.112Z,3.83
2023-06-08T11:58:09.121Z,4.05
2023-06-08T12:01:14.314Z,3.58
2023-06-08T12:04:16.611Z,4.43
2023-06-08T12:07:19.058Z,3.85
2023-06-08T12:10:21.620Z,3.85
2023-06-08T12:13:26.172Z,4.35
2023-06-08T12:16:30.887Z,4.82
2023-06-08T12:19:35.643Z,4.72
2023-06-08T12:22:37.876Z,4.93
2023-06-08T12:25:42.572Z,4.97
2023-06-08T12:28:44.934Z,6.00
2023-06-08T12:31:49.729Z,5.70
2023-06-08T12:34:54.359Z,6.25
2023-06-08T12:37:56.693Z,5.30
2023-06-08T12:41:01.250Z,6.57
2023-06-08T12:44:05.958Z,6.57
2023-06-08T12:47:10.289Z,6.68
2023-06-08T12:50:13.784Z,6.63
2023-06-08T12:53:21.100Z,6.85
2023-06-08T12:56:26.272Z,7.20
2023-06-08T12:59:30.817Z,6.70
2023-06-08T13:02:33.651Z,6.63
2023-06-08T13:05:36.283Z,6.25
2023-06-08T13:08:40.901Z,6.57
2023-06-08T13:11:45.457Z,6.95
2023-06-08T13:14:48.255Z,7.00
2023-06-08T13:17:52.788Z,8.63
2023-06-08T13:20:55.253Z,8.38
2023-06-08T13:23:57.691Z,7.88
2023-06-08T13:26:59.949Z,7.00
2023-06-08T13:30:02.268Z,8.18
2023-06-08T13:33:09.086Z,6.90
2023-06-08T13:36:11.462Z,8.02
2023-06-08T13:39:14.147Z,7.45
2023-06-08T13:42:18.495Z,6.53
2023-06-08T13:45:21.802Z,6.40
2023-06-08T13:48:28.673Z,7.35
2023-06-08T13:51:30.977Z,7.22
2023-06-08T13:54:39.876Z,6.13
2023-06-08T13:57:42.180Z,6.00
2023-06-08T14:00:47.201Z,6.13
2023-06-08T14:06:53.906Z,5.93
2023-06-08T14:09:58.674Z,5.93
2023-06-08T14:13:03.679Z,5.65
2023-06-08T14:19:09.047Z,5.47
2023-06-08T14:22:15.220Z,6.10
2023-06-08T14:25:19.967Z,6.70
2023-06-08T14:28:24.516Z,5.18
2023-06-08T14:31:26.903Z,6.55
2023-06-08T14:34:34.562Z,5.72
2023-06-08T14:37:39.242Z,5.15
2023-06-08T14:40:42.001Z,5.65
2023-06-08T14:46:53.419Z,5.57
2023-06-08T14:49:55.912Z,5.20
2023-06-08T14:53:00.727Z,5.40
2023-06-08T14:56:05.577Z,5.07
2023-06-08T14:59:10.540Z,5.35
2023-06-08T15:02:15.349Z,4.70
2023-06-08T15:05:22.508Z,4.78
2023-06-08T15:08:24.813Z,4.53
2023-06-08T15:11:29.331Z,4.63
2023-06-08T15:14:34.239Z,4.10
2023-06-08T15:20:41.173Z,4.43
2023-06-08T15:23:46.619Z,3.88
2023-06-08T15:26:49.371Z,3.20
2023-06-08T15:29:52.384Z,3.72
2023-06-08T15:33:07.639Z,3.92
2023-06-08T15:36:10.096Z,3.38
2023-06-08T15:39:12.788Z,5.00
2023-06-08T15:42:15.238Z,3.70
2023-06-08T15:45:17.724Z,4.03
2023-06-08T15:48:20.195Z,4.25
2023-06-08T15:51:31.752Z,3.88
2023-06-08T15:54:35.460Z,3.63
2023-06-08T15:57:37.820Z,3.00
2023-06-08T16:00:41.038Z,3.35
2023-06-08T16:03:43.471Z,3.22
2023-06-08T16:06:46.966Z,3.63
2023-06-08T16:09:49.338Z,3.70
2023-06-08T16:12:53.821Z,4.20
2023-06-08T16:15:56.364Z,3.63
2023-06-08T16:18:58.714Z,4.15
2023-06-08T16:22:01.053Z,3.90
2023-06-08T16:25:03.948Z,4.15
2023-06-08T16:28:06.542Z,3.58
2023-06-08T16:31:11.239Z,4.10
2023-06-08T16:34:13.520Z,3.97
2023-06-08T16:37:15.927Z,4.35
2023-06-08T16:40:18.413Z,3.80
2023-06-08T16:43:20.990Z,3.65
2023-06-08T16:46:23.665Z,4.05
2023-06-08T16:49:26.007Z,5.07
2023-06-08T16:52:28.228Z,4.53
2023-06-08T16:55:33.046Z,3.90
2023-06-08T16:58:36.733Z,3.63
2023-06-08T17:01:41.465Z,6.07
2023-06-08T17:04:43.748Z,3.97
2023-06-08T17:07:46.113Z,4.47
2023-06-08T17:10:48.359Z,4.78
2023-06-08T17:13:50.781Z,4.50
2023-06-08T17:16:58.007Z,4.93
2023-06-08T17:20:01.663Z,5.18
2023-06-08T17:23:03.984Z,4.82
2023-06-08T17:26:08.633Z,5.00
2023-06-08T17:29:11.269Z,5.10
2023-06-08T17:32:16.354Z,5.38
2023-06-08T17:38:23.963Z,4.68
2023-06-08T17:41:26.326Z,4.53
2023-06-08T17:44:28.711Z,5.65
2023-06-08T17:47:34.636Z,4.78
2023-06-08T17:50:39.465Z,4.30
2023-06-08T17:53:44.765Z,5.07
2023-06-08T17:56:49.315Z,4.22
2023-06-08T17:59:54.470Z,5.00
2023-06-08T18:02:57.387Z,4.78
2023-06-08T18:06:11.512Z,5.30
2023-06-08T18:09:24.015Z,5.45
2023-06-08T18:12:31.487Z,5.22
2023-06-08T18:15:33.942Z,4.57
2023-06-08T18:18:36.512Z,4.90
2023-06-08T18:21:40.565Z,5.55
2023-06-08T18:24:42.951Z,6.22
2023-06-08T18:27:45.235Z,5.20
2023-06-08T18:30:47.570Z,5.70
2023-06-08T18:33:53.311Z,5.10
2023-06-08T18:36:55.635Z,4.78
2023-06-08T18:39:59.443Z,5.25
2023-06-08T18:43:05.572Z,5.00
2023-06-08T18:46:10.288Z,5.10
2023-06-08T18:49:13.168Z,5.05
2023-06-08T18:52:20.452Z,5.05
2023-06-08T18:55:25.064Z,5.38
2023-06-08T18:58:30.064Z,4.75
2023-06-08T19:01:32.470Z,4.43
2023-06-08T19:04:35.082Z,5.50
2023-06-08T19:07:42.136Z,5.05
2023-06-08T19:10:49.686Z,5.30
2023-06-08T19:13:54.099Z,5.35
2023-06-08T19:16:59.759Z,5.30
2023-06-08T19:20:02.445Z,4.50
2023-06-08T19:26:09.446Z,5.07
2023-06-08T19:29:14.285Z,5.10
2023-06-08T19:32:19.112Z,5.03
2023-06-08T19:35:24.177Z,5.03
2023-06-08T19:38:26.829Z,5.68
2023-06-08T19:41:29.370Z,5.13
2023-06-08T19:44:31.744Z,5.43
2023-06-08T19:47:36.661Z,5.78
2023-06-08T19:53:41.716Z,5.78
2023-06-08T19:56:46.301Z,5.75
2023-06-08T19:59:53.757Z,6.63
2023-06-08T20:02:58.155Z,5.80
2023-06-08T20:06:01.129Z,5.80
2023-06-08T20:09:11.520Z,6.30
2023-06-08T20:12:13.952Z,6.20
2023-06-08T20:15:20.853Z,5.60
2023-06-08T20:18:23.350Z,5.95
2023-06-08T20:21:25.788Z,6.65
2023-06-08T20:24:29.168Z,6.88
2023-06-08T20:27:33.656Z,6.80
2023-06-08T20:30:41.657Z,6.78
2023-06-08T20:33:46.413Z,6.82
2023-06-08T20:36:48.679Z,6.63
2023-06-08T20:39:51.025Z,6.93
2023-06-08T20:42:57.843Z,6.80
2023-06-08T20:46:02.724Z,6.55
2023-06-08T20:49:06.344Z,8.63
2023-06-08T20:52:11.168Z,7.28
2023-06-08T20:55:13.581Z,7.32
2023-06-08T20:58:16.821Z,7.60
2023-06-08T21:01:21.445Z,7.45
2023-06-08T21:04:30.739Z,8.18
2023-06-08T21:07:33.184Z,7.90
2023-06-08T21:10:38.698Z,8.68
2023-06-08T21:13:43.688Z,8.30
2023-06-08T21:16:49.638Z,8.13
2023-06-08T21:22:56.302Z,8.30
2023-06-08T21:25:58.640Z,9.05
2023-06-08T21:29:01.328Z,9.13
2023-06-08T21:32:04.415Z,9.07
2023-06-08T21:35:07.434Z,8.50
2023-06-08T21:38:12.380Z,8.75
2023-06-08T21:41:15.686Z,8.90
2023-06-08T21:44:18.103Z,8.98
2023-06-08T21:47:22.695Z,8.95
2023-06-08T21:50:27.397Z,9.25
2023-06-08T21:53:29.710Z,8.95
2023-06-08T21:56:35.031Z,9.48
2023-06-08T21:59:39.550Z,9.98
2023-06-08T22:02:44.357Z,9.48
2023-06-08T22:05:46.677Z,9.65
2023-06-08T22:08:51.230Z,9.10
2023-06-08T22:11:54.897Z,10.38
2023-06-08T22:15:00.287Z,10.48
2023-06-08T22:18:07.120Z,10.13
2023-06-08T22:21:12.782Z,10.15
2023-06-08T22:24:17.885Z,11.20
2023-06-08T22:30:24.930Z,11.43
2023-06-08T22:33:27.430Z,11.02
2023-06-08T22:36:33.794Z,10.55
2023-06-08T22:39:36.112Z,12.38
2023-06-08T22:42:40.735Z,11.48
2023-06-08T22:45:46.394Z,10.88
2023-06-08T22:48:54.259Z,12.43
2023-06-08T22:52:03.085Z,11.90
2023-06-08T22:55:08.727Z,12.20
2023-06-08T22:58:11.402Z,11.93
2023-06-08T23:01:19.847Z,11.52
2023-06-08T23:04:22.600Z,12.57
2023-06-08T23:10:31.943Z,12.70
2023-06-08T23:13:38.982Z,12.35
2023-06-08T23:16:41.410Z,12.75
2023-06-08T23:19:48.597Z,13.57
2023-06-08T23:22:56.529Z,11.35
2023-06-08T23:26:01.126Z,12.13
2023-06-08T23:29:06.706Z,12.60
2023-06-08T23:32:09.115Z,13.57
2023-06-08T23:35:13.898Z,13.10
2023-06-08T23:38:16.216Z,13.05
2023-06-08T23:41:22.433Z,12.27
2023-06-08T23:44:27.108Z,13.38
2023-06-08T23:47:29.495Z,13.00
2023-06-08T23:50:40.282Z,13.00
2023-06-08T23:53:45.009Z,13.73
2023-06-08T23:56:49.732Z,13.43
2023-06-08T23:59:52.026Z,13.75
